createdAt,value
2022-09-16T00:00:51.535Z,2.22
2022-09-16T00:03:18.395Z,2.50
2022-09-16T00:05:46.241Z,2.50
2022-09-16T00:08:13.133Z,2.30
2022-09-16T00:10:40.055Z,1.88
2022-09-16T00:13:06.907Z,2.30
2022-09-16T00:15:33.639Z,2.72
2022-09-16T00:18:00.341Z,4.28
2022-09-16T00:20:27.508Z,2.67
2022-09-16T00:22:54.246Z,2.70
2022-09-16T00:25:20.975Z,2.55
2022-09-16T00:27:49.032Z,2.22
2022-09-16T00:30:15.860Z,2.58
2022-09-16T00:32:42.574Z,3.22
2022-09-16T00:35:09.309Z,2.00
2022-09-16T00:37:36.056Z,2.63
2022-09-16T00:40:02.904Z,2.88
2022-09-16T00:42:29.645Z,3.05
2022-09-16T00:44:58.492Z,2.58
2022-09-16T00:47:42.018Z,2.30
2022-09-16T00:50:10.760Z,2.30
2022-09-16T00:52:39.533Z,2.60
2022-09-16T00:55:08.440Z,2.50
2022-09-16T00:57:35.707Z,2.17
2022-09-16T01:00:04.003Z,2.83
2022-09-16T01:02:31.278Z,3.00
2022-09-16T01:05:04.450Z,2.65
2022-09-16T01:07:34.482Z,3.42
2022-09-16T01:10:01.223Z,2.55
2022-09-16T01:12:29.566Z,2.47
2022-09-16T01:14:58.271Z,2.45
2022-09-16T01:17:43.710Z,3.23
2022-09-16T01:20:10.489Z,2.17
2022-09-16T01:22:49.444Z,2.67
2022-09-16T01:25:16.147Z,3.83
2022-09-16T01:27:46.572Z,2.65
2022-09-16T01:30:13.417Z,2.78
2022-09-16T01:32:53.322Z,2.60
2022-09-16T01:35:20.257Z,3.15
2022-09-16T01:37:53.097Z,4.05
2022-09-16T01:40:28.450Z,3.42
2022-09-16T01:43:17.972Z,2.85
2022-09-16T01:48:18.262Z,2.55
2022-09-16T01:50:52.786Z,3.75
2022-09-16T01:53:27.647Z,2.17
2022-09-16T01:55:57.968Z,2.65
2022-09-16T01:58:37.367Z,3.30
2022-09-16T02:03:34.017Z,3.75
2022-09-16T02:06:07.046Z,2.65
2022-09-16T02:08:40.376Z,2.45
2022-09-16T02:11:09.148Z,2.60
2022-09-16T02:13:37.834Z,3.20
2022-09-16T02:16:06.188Z,3.53
2022-09-16T02:18:34.957Z,2.83
2022-09-16T02:21:04.431Z,2.95
2022-09-16T02:26:00.542Z,2.83
2022-09-16T02:28:30.079Z,2.80
2022-09-16T02:33:24.522Z,3.08
2022-09-16T02:35:53.908Z,2.85
2022-09-16T02:38:26.072Z,3.17
2022-09-16T02:40:55.603Z,2.47
2022-09-16T02:45:49.116Z,3.28
2022-09-16T02:48:38.851Z,2.63
2022-09-16T02:51:15.214Z,2.90
2022-09-16T02:53:45.095Z,3.20
2022-09-16T02:56:22.322Z,2.65
2022-09-16T02:58:49.320Z,3.30
2022-09-16T03:01:17.767Z,2.97
2022-09-16T03:03:44.618Z,3.28
2022-09-16T03:06:17.093Z,2.70
2022-09-16T03:08:45.069Z,3.08
2022-09-16T03:11:17.516Z,3.55
2022-09-16T03:13:54.950Z,3.13
2022-09-16T03:16:26.461Z,4.03
2022-09-16T03:19:01.219Z,2.80
2022-09-16T03:21:30.856Z,2.60
2022-09-16T03:24:06.674Z,3.45
2022-09-16T03:26:33.408Z,2.80
2022-09-16T03:29:07.318Z,2.97
2022-09-16T03:31:55.223Z,3.03
2022-09-16T03:34:37.297Z,2.78
2022-09-16T03:37:09.299Z,2.80
2022-09-16T03:39:36.734Z,3.22
2022-09-16T03:42:05.295Z,2.70
2022-09-16T03:44:36.370Z,2.57
2022-09-16T03:47:03.569Z,3.58
2022-09-16T03:49:30.438Z,2.55
2022-09-16T03:51:57.432Z,4.20
2022-09-16T03:54:24.133Z,3.05
2022-09-16T03:56:50.889Z,3.00
2022-09-16T03:59:17.628Z,2.70
2022-09-16T04:01:45.411Z,2.67
2022-09-16T04:04:12.370Z,3.28
2022-09-16T04:06:39.167Z,2.70
2022-09-16T04:09:07.085Z,3.00
2022-09-16T04:11:35.024Z,2.40
2022-09-16T04:14:01.699Z,3.60
2022-09-16T04:16:28.495Z,3.25
2022-09-16T04:18:55.193Z,4.57
2022-09-16T04:21:21.986Z,4.47
2022-09-16T04:23:48.864Z,4.50
2022-09-16T04:26:16.011Z,3.25
2022-09-16T04:28:42.880Z,2.97
2022-09-16T04:31:13.169Z,3.75
2022-09-16T04:33:40.334Z,2.20
2022-09-16T04:36:14.550Z,2.15
2022-09-16T04:38:42.165Z,1.88
2022-09-16T04:41:10.152Z,2.13
2022-09-16T04:43:37.117Z,1.73
2022-09-16T04:46:04.692Z,2.33
2022-09-16T04:48:31.444Z,3.75
2022-09-16T04:51:05.812Z,3.20
2022-09-16T04:53:33.134Z,3.00
2022-09-16T04:56:09.408Z,2.88
2022-09-16T04:58:36.702Z,3.40
2022-09-16T05:01:07.220Z,2.83
2022-09-16T05:03:34.123Z,3.63
2022-09-16T05:06:04.859Z,1.55
2022-09-16T05:08:33.091Z,1.70
2022-09-16T05:11:02.808Z,2.70
2022-09-16T05:13:29.555Z,1.77
2022-09-16T05:15:56.393Z,1.80
2022-09-16T05:18:23.146Z,2.00
2022-09-16T05:20:49.948Z,1.60
2022-09-16T05:23:16.725Z,2.13
2022-09-16T05:25:43.443Z,1.77
2022-09-16T05:28:11.026Z,1.65
2022-09-16T05:30:37.760Z,1.90
2022-09-16T05:33:04.523Z,1.60
2022-09-16T05:35:31.211Z,2.33
2022-09-16T05:37:57.926Z,1.70
2022-09-16T05:40:25.053Z,1.98
2022-09-16T05:42:51.816Z,1.50
2022-09-16T05:45:24.137Z,1.45
2022-09-16T05:47:52.482Z,1.98
2022-09-16T05:50:19.201Z,1.50
2022-09-16T05:52:45.902Z,1.60
2022-09-16T05:55:12.729Z,1.63
2022-09-16T05:57:39.422Z,1.95
2022-09-16T06:00:06.529Z,1.83
2022-09-16T06:02:36.810Z,1.80
2022-09-16T06:05:03.593Z,1.80
2022-09-16T06:07:30.268Z,2.58
2022-09-16T06:09:57.055Z,2.63
2022-09-16T06:12:23.728Z,3.00
2022-09-16T06:14:50.429Z,2.80
2022-09-16T06:17:17.735Z,1.95
2022-09-16T06:19:44.611Z,2.13
2022-09-16T06:22:11.285Z,2.30
2022-09-16T06:24:38.020Z,1.77
2022-09-16T06:27:04.807Z,2.35
2022-09-16T06:29:31.511Z,1.95
2022-09-16T06:31:58.398Z,2.78
2022-09-16T06:34:26.642Z,2.33
2022-09-16T06:36:53.554Z,3.30
2022-09-16T06:39:20.326Z,2.15
2022-09-16T06:41:47.071Z,1.95
2022-09-16T06:44:13.938Z,1.88
2022-09-16T06:46:40.995Z,2.05
2022-09-16T06:49:07.887Z,2.30
2022-09-16T06:51:34.938Z,2.05
2022-09-16T06:54:02.652Z,2.55
2022-09-16T06:56:29.385Z,2.78
2022-09-16T06:58:57.274Z,2.20
2022-09-16T07:01:28.231Z,2.05
2022-09-16T07:03:56.453Z,1.70
2022-09-16T07:06:38.160Z,1.88
2022-09-16T07:09:11.183Z,1.90
2022-09-16T07:11:37.909Z,2.13
2022-09-16T07:14:04.970Z,1.35
2022-09-16T07:16:31.921Z,1.40
2022-09-16T07:19:01.068Z,1.80
2022-09-16T07:21:31.241Z,2.22
2022-09-16T07:23:59.088Z,1.42
2022-09-16T07:26:27.181Z,1.50
2022-09-16T07:28:54.747Z,2.05
2022-09-16T07:31:25.630Z,1.30
2022-09-16T07:33:53.352Z,1.30
2022-09-16T07:36:22.558Z,1.20
2022-09-16T07:38:49.725Z,1.15
2022-09-16T07:41:18.449Z,1.77
2022-09-16T07:43:45.640Z,1.33
2022-09-16T07:46:13.382Z,0.98
2022-09-16T07:48:40.204Z,1.30
2022-09-16T07:51:08.324Z,2.70
2022-09-16T07:53:35.448Z,1.63
2022-09-16T07:56:03.500Z,2.30
2022-09-16T07:58:30.248Z,1.58
2022-09-16T08:01:00.605Z,1.20
2022-09-16T08:03:30.207Z,1.23
2022-09-16T08:06:01.372Z,1.13
2022-09-16T08:08:28.186Z,1.30
2022-09-16T08:10:55.808Z,1.10
2022-09-16T08:13:22.683Z,1.58
2022-09-16T08:15:49.524Z,2.80
2022-09-16T08:18:16.296Z,1.33
2022-09-16T08:20:43.001Z,1.25
2022-09-16T08:23:10.074Z,1.60
2022-09-16T08:25:36.781Z,1.65
2022-09-16T08:28:04.270Z,1.30
2022-09-16T08:30:31.130Z,1.70
2022-09-16T08:32:58.564Z,1.23
2022-09-16T08:35:25.724Z,1.60
2022-09-16T08:37:52.786Z,1.30
2022-09-16T08:42:53.772Z,1.52
2022-09-16T08:45:42.006Z,1.27
2022-09-16T08:48:28.905Z,1.33
2022-09-16T08:50:57.092Z,1.20
2022-09-16T08:53:30.527Z,1.35
2022-09-16T08:55:58.354Z,2.25
2022-09-16T08:58:26.738Z,1.55
2022-09-16T09:00:56.340Z,1.50
2022-09-16T09:03:40.474Z,1.27
2022-09-16T09:06:27.436Z,1.90
2022-09-16T09:09:03.312Z,1.35
2022-09-16T09:11:30.163Z,1.15
2022-09-16T09:14:15.578Z,2.85
2022-09-16T09:16:46.434Z,1.65
2022-09-16T09:19:32.024Z,1.88
2022-09-16T09:22:22.120Z,1.27
2022-09-16T09:24:57.086Z,1.60
2022-09-16T09:27:31.162Z,1.60
2022-09-16T09:30:02.747Z,2.15
2022-09-16T09:32:49.716Z,1.10
2022-09-16T09:35:27.985Z,0.98
2022-09-16T09:38:13.558Z,1.35
2022-09-16T09:40:43.942Z,2.08
2022-09-16T09:43:18.834Z,1.65
2022-09-16T09:45:58.098Z,1.30
2022-09-16T09:48:35.357Z,1.58
2022-09-16T09:51:05.785Z,1.48
2022-09-16T09:53:53.545Z,1.13
2022-09-16T09:56:23.328Z,0.90
2022-09-16T09:59:08.602Z,1.30
2022-09-16T10:01:36.573Z,0.98
2022-09-16T10:04:08.762Z,1.25
2022-09-16T10:06:35.949Z,0.93
2022-09-16T10:09:02.729Z,0.80
2022-09-16T10:11:32.196Z,1.27
2022-09-16T10:16:27.178Z,1.90
2022-09-16T10:18:56.942Z,1.23
2022-09-16T10:21:23.789Z,0.90
2022-09-16T10:23:54.547Z,0.85
2022-09-16T10:26:22.935Z,1.83
2022-09-16T10:28:53.882Z,1.50
2022-09-16T10:31:21.050Z,1.65
2022-09-16T10:33:48.130Z,1.85
2022-09-16T10:36:19.910Z,1.40
2022-09-16T10:38:53.056Z,1.23
2022-09-16T10:41:21.816Z,1.58
2022-09-16T10:43:51.254Z,2.60
2022-09-16T10:48:46.356Z,1.95
2022-09-16T10:51:21.408Z,0.88
2022-09-16T10:53:52.682Z,0.93
2022-09-16T10:56:21.170Z,1.00
2022-09-16T10:58:47.892Z,1.00
2022-09-16T11:01:40.058Z,1.42
2022-09-16T11:04:25.449Z,1.08
2022-09-16T11:07:12.416Z,1.38
2022-09-16T11:09:39.139Z,0.93
2022-09-16T11:12:21.047Z,0.82
2022-09-16T11:15:06.683Z,1.00
2022-09-16T11:17:45.181Z,1.13
2022-09-16T11:20:24.080Z,1.10
2022-09-16T11:23:02.140Z,1.10
2022-09-16T11:25:34.769Z,1.17
2022-09-16T11:28:01.477Z,1.63
2022-09-16T11:30:30.491Z,0.90
2022-09-16T11:33:02.342Z,1.45
2022-09-16T11:35:32.744Z,1.33
2022-09-16T11:38:07.514Z,1.13
2022-09-16T11:40:41.678Z,0.70
2022-09-16T11:43:14.460Z,0.70
2022-09-16T11:45:47.615Z,0.50
2022-09-16T11:48:14.305Z,0.68
2022-09-16T11:50:45.886Z,0.73
2022-09-16T11:53:34.579Z,0.50
2022-09-16T11:56:02.534Z,0.50
2022-09-16T11:58:35.189Z,0.70
2022-09-16T12:01:06.722Z,0.90
2022-09-16T12:03:45.140Z,1.95
2022-09-16T12:06:15.640Z,1.00
2022-09-16T12:08:45.390Z,1.20
2022-09-16T12:11:18.137Z,0.90
2022-09-16T12:14:05.399Z,0.60
2022-09-16T12:16:47.749Z,0.80
2022-09-16T12:19:26.657Z,0.70
2022-09-16T12:22:01.057Z,0.70
2022-09-16T12:24:37.585Z,0.70
2022-09-16T12:27:23.205Z,0.73
2022-09-16T12:29:55.122Z,0.70
2022-09-16T12:32:41.523Z,0.90
2022-09-16T12:35:16.279Z,0.60
2022-09-16T12:37:50.216Z,1.13
2022-09-16T12:40:24.185Z,0.85
2022-09-16T12:43:01.254Z,0.93
2022-09-16T12:45:27.998Z,0.80
2022-09-16T12:48:18.027Z,0.80
2022-09-16T12:50:44.800Z,1.30
2022-09-16T12:53:32.350Z,0.60
2022-09-16T12:56:14.632Z,0.75
2022-09-16T12:58:53.090Z,0.60
2022-09-16T13:01:27.823Z,0.73
2022-09-16T13:03:59.154Z,0.65
2022-09-16T13:06:30.826Z,0.70
2022-09-16T13:08:59.468Z,0.60
2022-09-16T13:14:29.491Z,1.73
2022-09-16T13:16:57.782Z,0.75
2022-09-16T13:19:28.103Z,0.52
2022-09-16T13:21:56.970Z,0.30
2022-09-16T13:24:23.647Z,0.40
2022-09-16T13:26:50.883Z,0.93
2022-09-16T13:29:24.950Z,0.50
2022-09-16T13:31:51.903Z,0.70
2022-09-16T13:34:19.510Z,0.40
2022-09-16T13:36:46.381Z,0.77
2022-09-16T13:39:14.498Z,5.05
2022-09-16T13:41:45.622Z,0.95
2022-09-16T13:44:30.406Z,0.88
2022-09-16T13:47:09.315Z,0.77
2022-09-16T13:49:39.230Z,1.02
2022-09-16T13:52:15.570Z,1.13
2022-09-16T13:55:08.974Z,0.70
2022-09-16T13:57:52.833Z,0.60
2022-09-16T14:00:23.701Z,0.55
2022-09-16T14:03:23.124Z,1.00
2022-09-16T14:05:49.821Z,0.70
2022-09-16T14:08:25.848Z,1.00
2022-09-16T14:11:07.909Z,0.63
2022-09-16T14:13:46.497Z,0.40
2022-09-16T14:16:17.123Z,1.10
2022-09-16T14:18:47.472Z,0.65
2022-09-16T14:21:19.254Z,0.60
2022-09-16T14:23:46.469Z,0.90
2022-09-16T14:26:20.979Z,0.38
2022-09-16T14:28:47.936Z,0.60
2022-09-16T14:31:16.842Z,0.60
2022-09-16T14:33:56.336Z,0.82
2022-09-16T14:36:28.789Z,0.73
2022-09-16T14:39:07.903Z,0.57
2022-09-16T14:41:37.849Z,0.55
2022-09-16T14:44:17.114Z,0.55
2022-09-16T14:46:45.224Z,1.00
2022-09-16T14:49:13.265Z,0.60
2022-09-16T14:51:43.899Z,1.02
2022-09-16T14:54:21.274Z,0.80
2022-09-16T14:56:57.041Z,0.60
2022-09-16T14:59:28.085Z,0.60
2022-09-16T15:01:56.651Z,0.40
2022-09-16T15:04:27.324Z,0.60
2022-09-16T15:06:58.829Z,0.40
2022-09-16T15:09:42.512Z,0.50
2022-09-16T15:12:16.863Z,0.52
2022-09-16T15:14:43.617Z,1.80
2022-09-16T15:17:16.923Z,2.65
2022-09-16T15:19:48.352Z,0.60
2022-09-16T15:22:15.556Z,1.30
2022-09-16T15:24:42.648Z,2.78
2022-09-16T15:27:09.562Z,1.40
2022-09-16T15:29:46.437Z,1.17
2022-09-16T15:32:13.160Z,0.68
2022-09-16T15:34:39.860Z,0.60
2022-09-16T15:37:26.544Z,0.50
2022-09-16T15:39:53.390Z,0.50
2022-09-16T15:42:20.859Z,0.98
2022-09-16T15:44:52.409Z,0.50
2022-09-16T15:47:20.745Z,0.60
2022-09-16T15:49:49.287Z,0.60
2022-09-16T15:52:19.337Z,0.70
2022-09-16T15:54:47.775Z,0.40
2022-09-16T15:57:38.733Z,0.43
2022-09-16T16:00:12.565Z,0.40
2022-09-16T16:02:58.903Z,1.23
2022-09-16T16:05:28.092Z,1.70
2022-09-16T16:07:57.426Z,3.47
2022-09-16T16:10:30.115Z,0.50
2022-09-16T16:12:57.753Z,0.63
2022-09-16T16:15:25.672Z,0.68
2022-09-16T16:17:53.375Z,0.63
2022-09-16T16:20:20.911Z,0.60
2022-09-16T16:22:48.601Z,0.82
2022-09-16T16:25:15.990Z,1.35
2022-09-16T16:27:42.814Z,1.10
2022-09-16T16:30:09.770Z,1.33
2022-09-16T16:32:38.463Z,1.00
2022-09-16T16:35:05.614Z,2.90
2022-09-16T16:37:47.896Z,7.78
2022-09-16T16:40:15.471Z,1.63
2022-09-16T16:42:43.582Z,2.33
2022-09-16T16:45:13.731Z,3.75
2022-09-16T16:47:40.890Z,1.90
2022-09-16T16:50:07.774Z,0.80
2022-09-16T16:52:34.501Z,1.40
2022-09-16T16:55:01.310Z,1.00
2022-09-16T16:57:28.408Z,0.50
2022-09-16T16:59:55.086Z,0.70
2022-09-16T17:02:21.889Z,0.50
2022-09-16T17:04:48.622Z,0.40
2022-09-16T17:07:25.721Z,0.40
2022-09-16T17:09:53.421Z,0.40
2022-09-16T17:12:20.211Z,0.30
2022-09-16T17:14:47.086Z,0.80
2022-09-16T17:17:13.773Z,0.30
2022-09-16T17:19:40.568Z,0.50
2022-09-16T17:22:07.304Z,0.75
2022-09-16T17:24:34.696Z,0.40
2022-09-16T17:27:01.968Z,1.02
2022-09-16T17:29:28.835Z,0.80
2022-09-16T17:31:57.081Z,0.60
2022-09-16T17:34:26.138Z,0.80
2022-09-16T17:36:52.826Z,0.70
2022-09-16T17:39:20.848Z,0.80
2022-09-16T17:41:48.725Z,0.70
2022-09-16T17:44:16.038Z,1.10
2022-09-16T17:46:43.052Z,0.80
2022-09-16T17:49:17.147Z,1.00
2022-09-16T17:51:45.253Z,1.02
2022-09-16T17:54:11.974Z,0.40
2022-09-16T17:56:38.850Z,0.95
2022-09-16T17:59:05.830Z,0.70
2022-09-16T18:01:32.613Z,0.40
2022-09-16T18:03:59.743Z,0.70
2022-09-16T18:06:31.334Z,0.50
2022-09-16T18:09:04.598Z,0.50
2022-09-16T18:11:31.671Z,1.13
2022-09-16T18:13:59.643Z,2.63
2022-09-16T18:16:27.422Z,4.05
2022-09-16T18:18:55.033Z,1.10
2022-09-16T18:21:23.049Z,1.30
2022-09-16T18:23:53.017Z,1.92
2022-09-16T18:26:19.806Z,2.00
2022-09-16T18:29:08.535Z,3.85
2022-09-16T18:31:34.875Z,5.10
2022-09-16T18:34:01.606Z,1.90
2022-09-16T18:36:30.110Z,3.75
2022-09-16T18:38:57.725Z,2.50
2022-09-16T18:41:25.735Z,1.58
2022-09-16T18:43:53.740Z,5.55
2022-09-16T18:46:26.151Z,4.75
2022-09-16T18:48:53.838Z,3.38
2022-09-16T18:51:28.404Z,4.90
2022-09-16T18:53:58.011Z,4.70
2022-09-16T18:56:25.404Z,6.32
2022-09-16T18:59:17.307Z,1.75
2022-09-16T19:01:40.036Z,3.10
2022-09-16T19:04:08.949Z,3.97
2022-09-16T19:06:36.797Z,2.22
2022-09-16T19:09:06.087Z,2.85
2022-09-16T19:11:33.560Z,6.22
2022-09-16T19:14:00.642Z,6.60
2022-09-16T19:16:27.667Z,6.30
2022-09-16T19:18:55.438Z,6.85
2022-09-16T19:21:22.938Z,2.58
2022-09-16T19:23:58.484Z,2.17
2022-09-16T19:26:31.155Z,2.25
2022-09-16T19:28:59.535Z,2.20
2022-09-16T19:31:26.655Z,2.22
2022-09-16T19:33:54.805Z,2.58
2022-09-16T19:36:23.171Z,2.08
2022-09-16T19:38:50.652Z,0.60
2022-09-16T19:41:18.257Z,2.67
2022-09-16T19:43:45.301Z,1.25
2022-09-16T19:46:13.146Z,0.90
2022-09-16T19:48:41.842Z,0.70
2022-09-16T19:51:09.432Z,0.80
2022-09-16T19:53:36.779Z,1.23
2022-09-16T19:56:04.989Z,1.92
2022-09-16T19:58:33.086Z,0.90
2022-09-16T20:01:01.023Z,2.10
2022-09-16T20:03:31.740Z,0.80
2022-09-16T20:06:17.850Z,5.43
2022-09-16T20:08:45.552Z,1.13
2022-09-16T20:11:13.797Z,5.57
2022-09-16T20:13:41.021Z,5.63
2022-09-16T20:16:08.772Z,1.75
2022-09-16T20:18:36.471Z,2.65
2022-09-16T20:21:07.319Z,1.10
2022-09-16T20:23:34.438Z,1.50
2022-09-16T20:26:02.181Z,0.80
2022-09-16T20:28:29.645Z,0.95
2022-09-16T20:30:56.420Z,0.90
2022-09-16T20:33:23.371Z,4.07
2022-09-16T20:35:50.077Z,1.42
2022-09-16T20:38:16.813Z,1.08
2022-09-16T20:40:44.805Z,1.38
2022-09-16T20:43:14.837Z,1.00
2022-09-16T20:45:41.605Z,0.80
2022-09-16T20:48:08.550Z,0.98
2022-09-16T20:50:39.132Z,0.60
2022-09-16T20:53:06.296Z,1.00
2022-09-16T20:55:33.009Z,0.70
2022-09-16T20:57:59.714Z,1.40
2022-09-16T21:00:26.518Z,1.20
2022-09-16T21:02:54.329Z,0.85
2022-09-16T21:05:21.196Z,0.98
2022-09-16T21:07:47.916Z,0.68
2022-09-16T21:10:14.632Z,1.20
2022-09-16T21:12:41.339Z,0.75
2022-09-16T21:15:08.245Z,0.80
2022-09-16T21:17:35.012Z,0.98
2022-09-16T21:20:02.147Z,0.80
2022-09-16T21:22:29.085Z,1.00
2022-09-16T21:24:55.846Z,0.90
2022-09-16T21:27:22.648Z,1.10
2022-09-16T21:29:50.475Z,1.27
2022-09-16T21:32:17.248Z,1.10
2022-09-16T21:34:43.927Z,1.20
2022-09-16T21:37:10.621Z,1.52
2022-09-16T21:39:37.407Z,1.35
2022-09-16T21:42:04.803Z,1.20
2022-09-16T21:44:31.532Z,1.77
2022-09-16T21:46:58.294Z,0.70
2022-09-16T21:49:25.773Z,2.53
2022-09-16T21:51:53.501Z,0.98
2022-09-16T21:54:20.741Z,1.38
2022-09-16T21:56:47.830Z,1.30
2022-09-16T21:59:14.617Z,2.08
2022-09-16T22:01:41.398Z,3.30
2022-09-16T22:04:12.447Z,2.58
2022-09-16T22:06:39.402Z,1.40
2022-09-16T22:09:07.861Z,2.40
2022-09-16T22:11:35.698Z,2.97
2022-09-16T22:14:02.640Z,1.58
2022-09-16T22:16:30.541Z,2.42
2022-09-16T22:18:58.621Z,3.17
2022-09-16T22:21:26.104Z,1.52
2022-09-16T22:23:53.137Z,1.55
2022-09-16T22:26:21.491Z,1.85
2022-09-16T22:28:48.616Z,1.50
2022-09-16T22:31:16.756Z,2.08
2022-09-16T22:33:44.786Z,1.65
2022-09-16T22:36:15.726Z,3.05
2022-09-16T22:38:48.351Z,3.13
2022-09-16T22:41:15.740Z,1.50
2022-09-16T22:43:43.141Z,1.65
2022-09-16T22:46:11.860Z,3.40
2022-09-16T22:48:39.202Z,3.23
2022-09-16T22:51:06.204Z,3.15
2022-09-16T22:53:33.004Z,2.53
2022-09-16T22:56:01.158Z,1.63
2022-09-16T22:58:28.480Z,1.35
2022-09-16T23:01:03.014Z,1.90
2022-09-16T23:03:30.267Z,1.75
2022-09-16T23:05:57.906Z,2.40
2022-09-16T23:08:25.032Z,3.88
2022-09-16T23:10:52.190Z,4.05
2022-09-16T23:13:18.951Z,2.13
2022-09-16T23:15:45.781Z,2.13
2022-09-16T23:18:12.623Z,1.88
2022-09-16T23:20:39.304Z,2.50
2022-09-16T23:23:06.018Z,1.30
2022-09-16T23:25:34.179Z,1.92
2022-09-16T23:28:00.971Z,1.92
2022-09-16T23:30:27.713Z,1.70
2022-09-16T23:32:54.393Z,1.73
2022-09-16T23:35:21.863Z,1.42
2022-09-16T23:37:49.377Z,1.73
2022-09-16T23:40:16.294Z,1.17
2022-09-16T23:42:43.091Z,1.30
2022-09-16T23:45:09.973Z,1.73
2022-09-16T23:47:36.745Z,1.33
2022-09-16T23:50:03.536Z,1.02
2022-09-16T23:52:30.319Z,1.30
2022-09-16T23:54:57.026Z,0.65
2022-09-16T23:57:23.916Z,1.30
2022-09-16T23:59:50.627Z,1.13
